Hauptseite
METAR-TAF:

METAR-TAF

Flughäfen :

Flughafen Surgut

Surgut, Russland

Breite: 61-15N, Länge: 073-30E, Höhe: 44 m

Beobachtung

Neuester Wetterbericht von vor 11 Minuten, um 04:56 UTC
Wind 16 kt aus Nord/Nordwest, Böen bis zu 25 kt
Temperatur 14°C
Luftfeuchtigkeit 58%
Luftdruck 1014 hPa
Sichtweite 10 km oder mehr
Durchbrochene Bewölkung in der Höhe von 4700 ft

METAR: USRR 180456Z 34008G13MPS 9999 BKN047 14/06 Q1014 R25/CLRD60 NOSIG RMK QFE755

Zeit: 10:07 (05:07 UTC)

Prognose

Neuester Wetterbericht von vor 1 Stunde und 7 Minuten, um 04:00 UTC
Gültige Prognose vom 18 um 05 UTC bis 19 um 03 UTC
Wind 14 kt aus Nord, Böen bis zu 27 kt
Sichtweite 10 km oder mehr
Aufgelockert bewölkt in der Höhe von 2000 ft
Zeitweise
vom 18 um 05 UTC bis 18 um 15 UTC
Wind 16 kt aus Nordwest, Böen bis zu 33 kt

TAF: USRR 180400Z 1805/1903 35007G14MPS 9999 SCT020 TEMPO 1805/1815 31008G17MPS

Wetterbeobachtungen und Prognosen von mehr als 4000 Flughäfen (METAR und TAF Bericht).

Die verfügbaren Stationen werden durch gelbe und rote Markierungen auf der Karte dargestellt.

Führen Sie die Maus auf sie, um den Namen der Station zu sehen.

Darauf klicken, um die Beobachtung von Wetterbeobachtungen und Prognosen zu sehen.

Um die Karte zu ändern : klicken Sie auf den grünen Tasten mit einem schwarzen Kreuz Zum Vergrößern, auf den grünen Button mit einem Gedankenstrich zu verkleinern, oder auf die grünen Pfeile für benachbarte Karten.


METAR-TAF: